sensor_id;sensor_type;location;lat;lon;timestamp;P1;durP1;ratioP1;P2;durP2;ratioP2
65477;SDS011;53678;39.642;22.430;2023-06-22T00:01:28;8.43;;;5.40;;
65477;SDS011;53678;39.642;22.430;2023-06-22T00:03:54;9.40;;;5.15;;
65477;SDS011;53678;39.642;22.430;2023-06-22T00:06:20;12.75;;;5.88;;
65477;SDS011;53678;39.642;22.430;2023-06-22T00:08:46;13.57;;;5.90;;
65477;SDS011;53678;39.642;22.430;2023-06-22T00:11:12;11.15;;;5.90;;
65477;SDS011;53678;39.642;22.430;2023-06-22T00:13:38;12.85;;;5.30;;
65477;SDS011;53678;39.642;22.430;2023-06-22T00:16:04;16.02;;;5.57;;
65477;SDS011;53678;39.642;22.430;2023-06-22T00:18:30;18.98;;;5.72;;
65477;SDS011;53678;39.642;22.430;2023-06-22T00:20:57;9.48;;;6.00;;
65477;SDS011;53678;39.642;22.430;2023-06-22T00:23:23;10.90;;;5.93;;
65477;SDS011;53678;39.642;22.430;2023-06-22T00:25:49;14.60;;;6.82;;
65477;SDS011;53678;39.642;22.430;2023-06-22T00:28:15;12.73;;;6.70;;
65477;SDS011;53678;39.642;22.430;2023-06-22T00:30:41;13.40;;;6.47;;
65477;SDS011;53678;39.642;22.430;2023-06-22T00:33:06;9.90;;;5.75;;
65477;SDS011;53678;39.642;22.430;2023-06-22T00:35:32;9.02;;;6.30;;
65477;SDS011;53678;39.642;22.430;2023-06-22T00:37:59;7.60;;;5.55;;
65477;SDS011;53678;39.642;22.430;2023-06-22T00:40:32;18.48;;;7.00;;
65477;SDS011;53678;39.642;22.430;2023-06-22T00:42:59;12.10;;;6.75;;
65477;SDS011;53678;39.642;22.430;2023-06-22T00:45:25;12.82;;;7.75;;
65477;SDS011;53678;39.642;22.430;2023-06-22T00:47:51;11.30;;;6.43;;
65477;SDS011;53678;39.642;22.430;2023-06-22T00:50:19;10.60;;;6.28;;
65477;SDS011;53678;39.642;22.430;2023-06-22T00:52:51;11.25;;;6.70;;
65477;SDS011;53678;39.642;22.430;2023-06-22T00:55:19;8.95;;;6.38;;
65477;SDS011;53678;39.642;22.430;2023-06-22T00:57:46;8.52;;;6.15;;
65477;SDS011;53678;39.642;22.430;2023-06-22T01:00:14;10.15;;;6.65;;
65477;SDS011;53678;39.642;22.430;2023-06-22T01:02:45;11.98;;;6.15;;
65477;SDS011;53678;39.642;22.430;2023-06-22T01:05:14;9.82;;;6.50;;
65477;SDS011;53678;39.642;22.430;2023-06-22T01:07:45;12.77;;;7.10;;
65477;SDS011;53678;39.642;22.430;2023-06-22T01:10:33;9.57;;;6.10;;
65477;SDS011;53678;39.642;22.430;2023-06-22T01:13:07;7.65;;;5.30;;
65477;SDS011;53678;39.642;22.430;2023-06-22T01:15:53;8.60;;;4.95;;
65477;SDS011;53678;39.642;22.430;2023-06-22T01:18:23;8.80;;;5.60;;
65477;SDS011;53678;39.642;22.430;2023-06-22T01:20:54;11.02;;;5.50;;
65477;SDS011;53678;39.642;22.430;2023-06-22T01:23:29;8.70;;;5.60;;
65477;SDS011;53678;39.642;22.430;2023-06-22T01:31:10;6.97;;;5.20;;
65477;SDS011;53678;39.642;22.430;2023-06-22T01:33:39;7.93;;;5.22;;
65477;SDS011;53678;39.642;22.430;2023-06-22T01:36:07;10.82;;;5.30;;
65477;SDS011;53678;39.642;22.430;2023-06-22T01:38:33;11.82;;;5.85;;
65477;SDS011;53678;39.642;22.430;2023-06-22T01:41:01;8.77;;;6.05;;
65477;SDS011;53678;39.642;22.430;2023-06-22T01:43:27;8.90;;;5.93;;
65477;SDS011;53678;39.642;22.430;2023-06-22T01:45:54;7.78;;;5.57;;
65477;SDS011;53678;39.642;22.430;2023-06-22T01:48:21;10.43;;;5.93;;
65477;SDS011;53678;39.642;22.430;2023-06-22T01:50:47;10.38;;;6.45;;
65477;SDS011;53678;39.642;22.430;2023-06-22T01:53:13;8.15;;;5.88;;
65477;SDS011;53678;39.642;22.430;2023-06-22T01:55:39;13.18;;;6.75;;
65477;SDS011;53678;39.642;22.430;2023-06-22T01:58:05;19.17;;;7.38;;
65477;SDS011;53678;39.642;22.430;2023-06-22T02:00:35;12.40;;;7.00;;
65477;SDS011;53678;39.642;22.430;2023-06-22T02:03:10;7.60;;;6.30;;
65477;SDS011;53678;39.642;22.430;2023-06-22T02:05:39;9.77;;;5.30;;
65477;SDS011;53678;39.642;22.430;2023-06-22T02:08:19;9.77;;;5.47;;
65477;SDS011;53678;39.642;22.430;2023-06-22T02:10:48;8.10;;;5.68;;
65477;SDS011;53678;39.642;22.430;2023-06-22T02:13:15;8.55;;;5.50;;
65477;SDS011;53678;39.642;22.430;2023-06-22T02:15:43;11.13;;;5.25;;
65477;SDS011;53678;39.642;22.430;2023-06-22T02:18:11;10.52;;;6.88;;
65477;SDS011;53678;39.642;22.430;2023-06-22T02:20:38;8.75;;;5.90;;
65477;SDS011;53678;39.642;22.430;2023-06-22T02:23:05;7.18;;;5.65;;
65477;SDS011;53678;39.642;22.430;2023-06-22T02:25:34;7.75;;;5.32;;
65477;SDS011;53678;39.642;22.430;2023-06-22T02:28:00;11.07;;;5.80;;
65477;SDS011;53678;39.642;22.430;2023-06-22T02:30:26;10.75;;;5.90;;
65477;SDS011;53678;39.642;22.430;2023-06-22T02:32:52;8.02;;;5.78;;
65477;SDS011;53678;39.642;22.430;2023-06-22T02:35:27;14.05;;;6.78;;
65477;SDS011;53678;39.642;22.430;2023-06-22T02:37:57;12.65;;;5.95;;
65477;SDS011;53678;39.642;22.430;2023-06-22T02:40:28;10.82;;;6.68;;
65477;SDS011;53678;39.642;22.430;2023-06-22T02:42:56;18.23;;;7.07;;
65477;SDS011;53678;39.642;22.430;2023-06-22T02:45:27;15.57;;;6.73;;
65477;SDS011;53678;39.642;22.430;2023-06-22T02:47:54;19.10;;;7.38;;
65477;SDS011;53678;39.642;22.430;2023-06-22T02:50:20;13.75;;;7.03;;
65477;SDS011;53678;39.642;22.430;2023-06-22T02:52:46;13.48;;;7.22;;
65477;SDS011;53678;39.642;22.430;2023-06-22T02:55:12;13.48;;;6.95;;
65477;SDS011;53678;39.642;22.430;2023-06-22T02:57:38;16.70;;;7.07;;
65477;SDS011;53678;39.642;22.430;2023-06-22T03:00:09;15.80;;;7.28;;
65477;SDS011;53678;39.642;22.430;2023-06-22T03:02:44;9.07;;;6.47;;
65477;SDS011;53678;39.642;22.430;2023-06-22T03:05:10;10.77;;;6.60;;
65477;SDS011;53678;39.642;22.430;2023-06-22T03:07:40;14.10;;;7.50;;
65477;SDS011;53678;39.642;22.430;2023-06-22T03:10:09;13.52;;;6.65;;
65477;SDS011;53678;39.642;22.430;2023-06-22T03:12:36;9.68;;;6.43;;
65477;SDS011;53678;39.642;22.430;2023-06-22T03:15:04;9.95;;;6.50;;
65477;SDS011;53678;39.642;22.430;2023-06-22T03:17:35;12.88;;;6.90;;
65477;SDS011;53678;39.642;22.430;2023-06-22T03:20:01;11.43;;;6.70;;
65477;SDS011;53678;39.642;22.430;2023-06-22T03:22:37;10.50;;;6.93;;
65477;SDS011;53678;39.642;22.430;2023-06-22T03:25:07;14.75;;;6.95;;
65477;SDS011;53678;39.642;22.430;2023-06-22T03:27:41;16.63;;;6.65;;
65477;SDS011;53678;39.642;22.430;2023-06-22T03:30:10;16.65;;;6.25;;
65477;SDS011;53678;39.642;22.430;2023-06-22T03:32:37;10.32;;;6.18;;
65477;SDS011;53678;39.642;22.430;2023-06-22T03:35:04;20.85;;;8.55;;
65477;SDS011;53678;39.642;22.430;2023-06-22T03:37:32;22.85;;;8.07;;
65477;SDS011;53678;39.642;22.430;2023-06-22T03:39:59;9.40;;;6.15;;
65477;SDS011;53678;39.642;22.430;2023-06-22T03:42:27;14.13;;;7.20;;
65477;SDS011;53678;39.642;22.430;2023-06-22T03:44:53;13.98;;;7.32;;
65477;SDS011;53678;39.642;22.430;2023-06-22T03:47:19;21.55;;;6.55;;
65477;SDS011;53678;39.642;22.430;2023-06-22T03:49:45;14.60;;;7.60;;
65477;SDS011;53678;39.642;22.430;2023-06-22T03:52:10;14.52;;;6.68;;
65477;SDS011;53678;39.642;22.430;2023-06-22T03:54:36;10.82;;;6.88;;
65477;SDS011;53678;39.642;22.430;2023-06-22T03:57:02;13.80;;;6.63;;
65477;SDS011;53678;39.642;22.430;2023-06-22T03:59:28;20.90;;;6.97;;
65477;SDS011;53678;39.642;22.430;2023-06-22T04:01:55;17.13;;;7.28;;
65477;SDS011;53678;39.642;22.430;2023-06-22T04:04:20;18.25;;;7.53;;
65477;SDS011;53678;39.642;22.430;2023-06-22T04:06:46;12.15;;;6.28;;
65477;SDS011;53678;39.642;22.430;2023-06-22T04:09:12;14.90;;;6.97;;
65477;SDS011;53678;39.642;22.430;2023-06-22T04:11:38;12.07;;;6.47;;
65477;SDS011;53678;39.642;22.430;2023-06-22T04:14:03;16.48;;;7.25;;
65477;SDS011;53678;39.642;22.430;2023-06-22T04:16:29;9.50;;;6.30;;
65477;SDS011;53678;39.642;22.430;2023-06-22T04:18:55;20.67;;;6.90;;
65477;SDS011;53678;39.642;22.430;2023-06-22T04:21:20;12.10;;;6.43;;
65477;SDS011;53678;39.642;22.430;2023-06-22T04:23:46;17.88;;;7.00;;
65477;SDS011;53678;39.642;22.430;2023-06-22T04:26:12;13.32;;;7.45;;
65477;SDS011;53678;39.642;22.430;2023-06-22T04:28:39;20.63;;;7.65;;
65477;SDS011;53678;39.642;22.430;2023-06-22T04:31:06;15.23;;;6.80;;
65477;SDS011;53678;39.642;22.430;2023-06-22T04:33:31;19.25;;;7.75;;
65477;SDS011;53678;39.642;22.430;2023-06-22T04:35:57;15.20;;;7.40;;
65477;SDS011;53678;39.642;22.430;2023-06-22T04:38:26;12.10;;;7.15;;
65477;SDS011;53678;39.642;22.430;2023-06-22T04:40:52;18.75;;;8.32;;
65477;SDS011;53678;39.642;22.430;2023-06-22T04:43:19;12.80;;;8.05;;
65477;SDS011;53678;39.642;22.430;2023-06-22T04:45:45;16.63;;;6.93;;
65477;SDS011;53678;39.642;22.430;2023-06-22T04:48:11;16.85;;;7.15;;
65477;SDS011;53678;39.642;22.430;2023-06-22T04:50:41;14.35;;;8.18;;
65477;SDS011;53678;39.642;22.430;2023-06-22T04:53:07;21.02;;;8.70;;
65477;SDS011;53678;39.642;22.430;2023-06-22T04:55:34;16.13;;;7.97;;
65477;SDS011;53678;39.642;22.430;2023-06-22T04:58:03;16.63;;;7.55;;
65477;SDS011;53678;39.642;22.430;2023-06-22T05:00:30;19.50;;;8.43;;
65477;SDS011;53678;39.642;22.430;2023-06-22T05:02:56;15.88;;;8.25;;
65477;SDS011;53678;39.642;22.430;2023-06-22T05:05:28;12.98;;;7.97;;
65477;SDS011;53678;39.642;22.430;2023-06-22T05:07:56;11.30;;;7.00;;
65477;SDS011;53678;39.642;22.430;2023-06-22T05:10:26;13.65;;;7.15;;
65477;SDS011;53678;39.642;22.430;2023-06-22T05:12:51;15.75;;;7.47;;
65477;SDS011;53678;39.642;22.430;2023-06-22T05:15:18;16.20;;;7.45;;
65477;SDS011;53678;39.642;22.430;2023-06-22T05:17:48;15.18;;;6.35;;
65477;SDS011;53678;39.642;22.430;2023-06-22T05:20:13;14.95;;;7.70;;
65477;SDS011;53678;39.642;22.430;2023-06-22T05:22:43;11.55;;;7.40;;
65477;SDS011;53678;39.642;22.430;2023-06-22T05:25:09;11.23;;;7.18;;
65477;SDS011;53678;39.642;22.430;2023-06-22T05:27:37;11.02;;;7.30;;
65477;SDS011;53678;39.642;22.430;2023-06-22T05:30:06;7.50;;;6.47;;
65477;SDS011;53678;39.642;22.430;2023-06-22T05:32:33;11.93;;;6.70;;
65477;SDS011;53678;39.642;22.430;2023-06-22T05:34:59;13.80;;;6.95;;
65477;SDS011;53678;39.642;22.430;2023-06-22T05:37:25;9.48;;;6.50;;
65477;SDS011;53678;39.642;22.430;2023-06-22T05:39:54;12.07;;;6.60;;
65477;SDS011;53678;39.642;22.430;2023-06-22T05:42:20;11.27;;;6.30;;
65477;SDS011;53678;39.642;22.430;2023-06-22T05:44:47;10.05;;;5.97;;
65477;SDS011;53678;39.642;22.430;2023-06-22T05:47:13;10.73;;;5.97;;
65477;SDS011;53678;39.642;22.430;2023-06-22T05:49:38;11.50;;;5.85;;
65477;SDS011;53678;39.642;22.430;2023-06-22T05:52:04;9.95;;;5.47;;
65477;SDS011;53678;39.642;22.430;2023-06-22T05:54:30;9.63;;;5.53;;
65477;SDS011;53678;39.642;22.430;2023-06-22T05:56:56;12.50;;;5.20;;
65477;SDS011;53678;39.642;22.430;2023-06-22T05:59:22;9.23;;;5.30;;
65477;SDS011;53678;39.642;22.430;2023-06-22T06:01:48;9.23;;;5.05;;
65477;SDS011;53678;39.642;22.430;2023-06-22T06:04:17;14.18;;;6.03;;
65477;SDS011;53678;39.642;22.430;2023-06-22T06:06:43;9.05;;;5.25;;
65477;SDS011;53678;39.642;22.430;2023-06-22T06:09:09;7.10;;;4.90;;
65477;SDS011;53678;39.642;22.430;2023-06-22T06:11:36;6.22;;;4.57;;
65477;SDS011;53678;39.642;22.430;2023-06-22T06:14:02;6.75;;;4.65;;
65477;SDS011;53678;39.642;22.430;2023-06-22T06:16:30;7.85;;;5.40;;
65477;SDS011;53678;39.642;22.430;2023-06-22T06:18:55;7.43;;;4.88;;
65477;SDS011;53678;39.642;22.430;2023-06-22T06:21:22;7.93;;;5.13;;
65477;SDS011;53678;39.642;22.430;2023-06-22T06:23:47;5.90;;;4.68;;
65477;SDS011;53678;39.642;22.430;2023-06-22T06:26:13;8.95;;;4.93;;
65477;SDS011;53678;39.642;22.430;2023-06-22T06:28:41;7.78;;;5.60;;
65477;SDS011;53678;39.642;22.430;2023-06-22T06:31:08;7.07;;;4.70;;
65477;SDS011;53678;39.642;22.430;2023-06-22T06:33:35;10.38;;;5.00;;
65477;SDS011;53678;39.642;22.430;2023-06-22T06:36:01;8.50;;;4.70;;
65477;SDS011;53678;39.642;22.430;2023-06-22T06:38:29;31.88;;;6.85;;
65477;SDS011;53678;39.642;22.430;2023-06-22T06:40:56;5.90;;;4.15;;
65477;SDS011;53678;39.642;22.430;2023-06-22T06:43:22;7.68;;;4.47;;
65477;SDS011;53678;39.642;22.430;2023-06-22T06:45:49;6.82;;;4.30;;
65477;SDS011;53678;39.642;22.430;2023-06-22T06:48:14;7.22;;;3.92;;
65477;SDS011;53678;39.642;22.430;2023-06-22T06:50:40;5.45;;;4.15;;
65477;SDS011;53678;39.642;22.430;2023-06-22T06:53:06;7.38;;;4.47;;
65477;SDS011;53678;39.642;22.430;2023-06-22T06:55:31;5.53;;;4.55;;
65477;SDS011;53678;39.642;22.430;2023-06-22T06:58:02;7.82;;;4.82;;
65477;SDS011;53678;39.642;22.430;2023-06-22T07:00:33;5.90;;;4.60;;
65477;SDS011;53678;39.642;22.430;2023-06-22T07:02:58;8.38;;;5.40;;
65477;SDS011;53678;39.642;22.430;2023-06-22T07:05:30;7.87;;;4.37;;
65477;SDS011;53678;39.642;22.430;2023-06-22T07:07:56;7.72;;;4.90;;
65477;SDS011;53678;39.642;22.430;2023-06-22T07:10:22;8.57;;;4.80;;
65477;SDS011;53678;39.642;22.430;2023-06-22T07:12:47;8.20;;;5.05;;
65477;SDS011;53678;39.642;22.430;2023-06-22T07:15:13;5.63;;;5.03;;
65477;SDS011;53678;39.642;22.430;2023-06-22T07:17:39;11.80;;;5.15;;
65477;SDS011;53678;39.642;22.430;2023-06-22T07:20:08;7.22;;;5.10;;
65477;SDS011;53678;39.642;22.430;2023-06-22T07:22:37;5.93;;;4.60;;
65477;SDS011;53678;39.642;22.430;2023-06-22T07:25:05;5.38;;;4.70;;
65477;SDS011;53678;39.642;22.430;2023-06-22T07:27:44;12.55;;;5.50;;
65477;SDS011;53678;39.642;22.430;2023-06-22T07:30:11;12.07;;;5.95;;
65477;SDS011;53678;39.642;22.430;2023-06-22T07:32:37;5.78;;;4.80;;
65477;SDS011;53678;39.642;22.430;2023-06-22T07:35:03;8.07;;;5.15;;
65477;SDS011;53678;39.642;22.430;2023-06-22T07:37:29;9.02;;;4.63;;
65477;SDS011;53678;39.642;22.430;2023-06-22T07:39:55;8.90;;;4.95;;
65477;SDS011;53678;39.642;22.430;2023-06-22T07:42:25;6.90;;;4.75;;
65477;SDS011;53678;39.642;22.430;2023-06-22T07:44:51;7.05;;;4.70;;
65477;SDS011;53678;39.642;22.430;2023-06-22T07:47:16;6.20;;;4.88;;
65477;SDS011;53678;39.642;22.430;2023-06-22T07:49:50;6.55;;;4.57;;
65477;SDS011;53678;39.642;22.430;2023-06-22T07:52:16;8.52;;;4.90;;
65477;SDS011;53678;39.642;22.430;2023-06-22T07:54:42;8.73;;;5.00;;
65477;SDS011;53678;39.642;22.430;2023-06-22T07:57:09;7.55;;;5.35;;
65477;SDS011;53678;39.642;22.430;2023-06-22T07:59:35;6.63;;;4.75;;
65477;SDS011;53678;39.642;22.430;2023-06-22T08:02:01;9.98;;;5.70;;
65477;SDS011;53678;39.642;22.430;2023-06-22T08:04:28;7.88;;;4.90;;
65477;SDS011;53678;39.642;22.430;2023-06-22T08:06:55;8.27;;;5.50;;
65477;SDS011;53678;39.642;22.430;2023-06-22T08:09:21;10.18;;;5.40;;
65477;SDS011;53678;39.642;22.430;2023-06-22T08:11:48;7.72;;;5.63;;
65477;SDS011;53678;39.642;22.430;2023-06-22T08:14:14;6.00;;;4.75;;
65477;SDS011;53678;39.642;22.430;2023-06-22T08:16:41;11.07;;;6.07;;
65477;SDS011;53678;39.642;22.430;2023-06-22T08:19:07;6.72;;;4.80;;
65477;SDS011;53678;39.642;22.430;2023-06-22T08:21:32;6.38;;;4.97;;
65477;SDS011;53678;39.642;22.430;2023-06-22T08:23:58;9.82;;;4.80;;
65477;SDS011;53678;39.642;22.430;2023-06-22T08:26:24;9.77;;;6.00;;
65477;SDS011;53678;39.642;22.430;2023-06-22T08:28:49;9.88;;;5.82;;
65477;SDS011;53678;39.642;22.430;2023-06-22T08:31:15;7.32;;;5.20;;
65477;SDS011;53678;39.642;22.430;2023-06-22T08:33:41;6.22;;;5.10;;
65477;SDS011;53678;39.642;22.430;2023-06-22T08:36:08;6.53;;;4.80;;
65477;SDS011;53678;39.642;22.430;2023-06-22T08:38:36;9.57;;;5.50;;
65477;SDS011;53678;39.642;22.430;2023-06-22T08:41:01;12.55;;;5.40;;
65477;SDS011;53678;39.642;22.430;2023-06-22T08:43:28;8.40;;;5.45;;
65477;SDS011;53678;39.642;22.430;2023-06-22T08:45:54;7.90;;;5.53;;
65477;SDS011;53678;39.642;22.430;2023-06-22T08:48:21;8.13;;;5.43;;
65477;SDS011;53678;39.642;22.430;2023-06-22T08:50:46;10.65;;;6.32;;
65477;SDS011;53678;39.642;22.430;2023-06-22T08:53:12;8.50;;;5.75;;
65477;SDS011;53678;39.642;22.430;2023-06-22T08:55:38;6.82;;;5.30;;
65477;SDS011;53678;39.642;22.430;2023-06-22T08:58:03;7.50;;;5.03;;
65477;SDS011;53678;39.642;22.430;2023-06-22T09:00:30;6.60;;;5.57;;
65477;SDS011;53678;39.642;22.430;2023-06-22T09:02:58;6.18;;;5.28;;
65477;SDS011;53678;39.642;22.430;2023-06-22T09:05:24;7.68;;;5.40;;
65477;SDS011;53678;39.642;22.430;2023-06-22T09:07:53;7.22;;;5.20;;
65477;SDS011;53678;39.642;22.430;2023-06-22T09:10:21;6.88;;;5.15;;
65477;SDS011;53678;39.642;22.430;2023-06-22T09:12:47;6.45;;;5.40;;
65477;SDS011;53678;39.642;22.430;2023-06-22T09:15:12;9.00;;;5.70;;
65477;SDS011;53678;39.642;22.430;2023-06-22T09:17:40;7.45;;;5.53;;
65477;SDS011;53678;39.642;22.430;2023-06-22T09:20:06;8.50;;;5.55;;
65477;SDS011;53678;39.642;22.430;2023-06-22T09:22:36;7.32;;;5.90;;
65477;SDS011;53678;39.642;22.430;2023-06-22T09:25:01;7.18;;;5.78;;
65477;SDS011;53678;39.642;22.430;2023-06-22T09:27:30;8.23;;;5.82;;
65477;SDS011;53678;39.642;22.430;2023-06-22T09:29:55;7.32;;;5.82;;
65477;SDS011;53678;39.642;22.430;2023-06-22T09:32:24;6.57;;;5.85;;
65477;SDS011;53678;39.642;22.430;2023-06-22T09:34:50;10.30;;;6.00;;
65477;SDS011;53678;39.642;22.430;2023-06-22T09:37:16;11.82;;;6.70;;
65477;SDS011;53678;39.642;22.430;2023-06-22T09:39:42;6.28;;;5.57;;
65477;SDS011;53678;39.642;22.430;2023-06-22T09:42:08;8.05;;;5.30;;
65477;SDS011;53678;39.642;22.430;2023-06-22T09:44:34;7.45;;;6.18;;
65477;SDS011;53678;39.642;22.430;2023-06-22T09:47:00;7.15;;;5.50;;
65477;SDS011;53678;39.642;22.430;2023-06-22T09:49:26;11.15;;;6.13;;
65477;SDS011;53678;39.642;22.430;2023-06-22T09:51:52;9.70;;;5.57;;
65477;SDS011;53678;39.642;22.430;2023-06-22T09:54:18;6.55;;;5.70;;
65477;SDS011;53678;39.642;22.430;2023-06-22T09:56:43;7.80;;;5.90;;
65477;SDS011;53678;39.642;22.430;2023-06-22T09:59:09;8.30;;;5.65;;
65477;SDS011;53678;39.642;22.430;2023-06-22T10:01:36;7.80;;;5.97;;
65477;SDS011;53678;39.642;22.430;2023-06-22T10:04:03;7.72;;;6.30;;
65477;SDS011;53678;39.642;22.430;2023-06-22T10:06:29;6.88;;;5.90;;
65477;SDS011;53678;39.642;22.430;2023-06-22T10:08:55;8.32;;;6.38;;
65477;SDS011;53678;39.642;22.430;2023-06-22T10:11:21;8.15;;;5.70;;
65477;SDS011;53678;39.642;22.430;2023-06-22T10:13:52;10.63;;;5.43;;
65477;SDS011;53678;39.642;22.430;2023-06-22T10:16:19;7.95;;;5.90;;
65477;SDS011;53678;39.642;22.430;2023-06-22T10:18:46;7.50;;;5.90;;
65477;SDS011;53678;39.642;22.430;2023-06-22T10:21:12;8.13;;;5.97;;
65477;SDS011;53678;39.642;22.430;2023-06-22T10:23:39;6.82;;;5.50;;
65477;SDS011;53678;39.642;22.430;2023-06-22T10:26:05;6.53;;;5.78;;
65477;SDS011;53678;39.642;22.430;2023-06-22T10:28:32;6.03;;;5.43;;
65477;SDS011;53678;39.642;22.430;2023-06-22T10:30:57;8.50;;;5.78;;
65477;SDS011;53678;39.642;22.430;2023-06-22T10:33:23;7.50;;;5.40;;
65477;SDS011;53678;39.642;22.430;2023-06-22T10:35:49;12.27;;;5.93;;
65477;SDS011;53678;39.642;22.430;2023-06-22T10:38:15;7.57;;;6.05;;
65477;SDS011;53678;39.642;22.430;2023-06-22T10:40:41;14.73;;;6.22;;
65477;SDS011;53678;39.642;22.430;2023-06-22T10:43:07;6.72;;;5.45;;
65477;SDS011;53678;39.642;22.430;2023-06-22T10:45:32;9.15;;;6.90;;
65477;SDS011;53678;39.642;22.430;2023-06-22T10:47:58;7.95;;;5.60;;
65477;SDS011;53678;39.642;22.430;2023-06-22T10:50:24;7.05;;;5.60;;
65477;SDS011;53678;39.642;22.430;2023-06-22T10:52:52;7.85;;;5.85;;
65477;SDS011;53678;39.642;22.430;2023-06-22T10:55:17;10.98;;;5.63;;
65477;SDS011;53678;39.642;22.430;2023-06-22T10:57:43;9.60;;;5.80;;
65477;SDS011;53678;39.642;22.430;2023-06-22T11:00:12;9.18;;;5.85;;
65477;SDS011;53678;39.642;22.430;2023-06-22T11:02:39;8.38;;;5.60;;
65477;SDS011;53678;39.642;22.430;2023-06-22T11:05:06;9.65;;;6.57;;
65477;SDS011;53678;39.642;22.430;2023-06-22T11:07:32;8.27;;;5.63;;
65477;SDS011;53678;39.642;22.430;2023-06-22T11:09:58;6.57;;;5.70;;
65477;SDS011;53678;39.642;22.430;2023-06-22T11:12:24;6.82;;;5.57;;
65477;SDS011;53678;39.642;22.430;2023-06-22T11:14:50;6.90;;;5.82;;
65477;SDS011;53678;39.642;22.430;2023-06-22T11:17:17;6.13;;;5.53;;
65477;SDS011;53678;39.642;22.430;2023-06-22T11:19:43;6.68;;;5.75;;
65477;SDS011;53678;39.642;22.430;2023-06-22T11:22:10;7.38;;;5.82;;
65477;SDS011;53678;39.642;22.430;2023-06-22T11:24:35;6.57;;;5.93;;
65477;SDS011;53678;39.642;22.430;2023-06-22T11:27:01;6.45;;;5.75;;
65477;SDS011;53678;39.642;22.430;2023-06-22T11:29:27;8.57;;;5.53;;
65477;SDS011;53678;39.642;22.430;2023-06-22T11:31:53;8.93;;;6.35;;
65477;SDS011;53678;39.642;22.430;2023-06-22T11:34:18;10.43;;;5.90;;
65477;SDS011;53678;39.642;22.430;2023-06-22T11:36:44;8.40;;;5.53;;
65477;SDS011;53678;39.642;22.430;2023-06-22T11:39:10;7.72;;;5.80;;
65477;SDS011;53678;39.642;22.430;2023-06-22T11:41:39;6.85;;;5.90;;
65477;SDS011;53678;39.642;22.430;2023-06-22T11:44:04;7.20;;;5.55;;
65477;SDS011;53678;39.642;22.430;2023-06-22T11:46:30;8.60;;;6.45;;
65477;SDS011;53678;39.642;22.430;2023-06-22T11:48:57;8.48;;;6.65;;
65477;SDS011;53678;39.642;22.430;2023-06-22T11:51:23;7.25;;;6.15;;
65477;SDS011;53678;39.642;22.430;2023-06-22T11:53:48;8.15;;;6.00;;
65477;SDS011;53678;39.642;22.430;2023-06-22T11:56:16;7.32;;;6.10;;
65477;SDS011;53678;39.642;22.430;2023-06-22T11:58:41;7.85;;;5.63;;
65477;SDS011;53678;39.642;22.430;2023-06-22T12:01:07;8.10;;;6.10;;
65477;SDS011;53678;39.642;22.430;2023-06-22T12:03:32;7.22;;;5.75;;
65477;SDS011;53678;39.642;22.430;2023-06-22T12:05:59;8.88;;;6.10;;
65477;SDS011;53678;39.642;22.430;2023-06-22T12:08:24;6.28;;;5.68;;
65477;SDS011;53678;39.642;22.430;2023-06-22T12:10:51;6.63;;;5.93;;
65477;SDS011;53678;39.642;22.430;2023-06-22T12:13:19;10.57;;;5.90;;
65477;SDS011;53678;39.642;22.430;2023-06-22T12:15:44;6.45;;;5.85;;
65477;SDS011;53678;39.642;22.430;2023-06-22T12:18:10;6.25;;;5.10;;
65477;SDS011;53678;39.642;22.430;2023-06-22T12:20:36;7.28;;;5.65;;
65477;SDS011;53678;39.642;22.430;2023-06-22T12:23:03;8.88;;;6.00;;
65477;SDS011;53678;39.642;22.430;2023-06-22T12:25:28;6.85;;;6.18;;
65477;SDS011;53678;39.642;22.430;2023-06-22T12:27:54;8.70;;;5.88;;
65477;SDS011;53678;39.642;22.430;2023-06-22T12:30:20;7.22;;;5.90;;
65477;SDS011;53678;39.642;22.430;2023-06-22T12:32:46;8.23;;;6.38;;
65477;SDS011;53678;39.642;22.430;2023-06-22T12:35:11;10.30;;;5.60;;
65477;SDS011;53678;39.642;22.430;2023-06-22T12:37:42;9.88;;;6.65;;
65477;SDS011;53678;39.642;22.430;2023-06-22T12:40:08;7.15;;;6.45;;
65477;SDS011;53678;39.642;22.430;2023-06-22T12:42:36;7.13;;;6.00;;
65477;SDS011;53678;39.642;22.430;2023-06-22T12:45:02;6.65;;;5.57;;
65477;SDS011;53678;39.642;22.430;2023-06-22T12:47:28;8.00;;;5.80;;
65477;SDS011;53678;39.642;22.430;2023-06-22T12:49:54;6.78;;;5.55;;
65477;SDS011;53678;39.642;22.430;2023-06-22T12:52:19;8.25;;;5.05;;
65477;SDS011;53678;39.642;22.430;2023-06-22T12:54:45;10.75;;;5.68;;
65477;SDS011;53678;39.642;22.430;2023-06-22T12:57:13;6.82;;;6.00;;
65477;SDS011;53678;39.642;22.430;2023-06-22T12:59:39;8.55;;;6.18;;
65477;SDS011;53678;39.642;22.430;2023-06-22T13:02:05;7.10;;;5.10;;
65477;SDS011;53678;39.642;22.430;2023-06-22T13:04:31;6.05;;;5.45;;
65477;SDS011;53678;39.642;22.430;2023-06-22T13:06:56;8.23;;;5.60;;
65477;SDS011;53678;39.642;22.430;2023-06-22T13:09:22;8.68;;;5.70;;
65477;SDS011;53678;39.642;22.430;2023-06-22T13:11:48;7.93;;;5.60;;
65477;SDS011;53678;39.642;22.430;2023-06-22T13:14:13;7.25;;;6.13;;
65477;SDS011;53678;39.642;22.430;2023-06-22T13:16:41;10.48;;;5.75;;
65477;SDS011;53678;39.642;22.430;2023-06-22T13:19:07;8.80;;;5.70;;
65477;SDS011;53678;39.642;22.430;2023-06-22T13:21:33;11.10;;;5.07;;
65477;SDS011;53678;39.642;22.430;2023-06-22T13:23:59;7.38;;;4.95;;
65477;SDS011;53678;39.642;22.430;2023-06-22T13:26:25;7.65;;;5.88;;
65477;SDS011;53678;39.642;22.430;2023-06-22T13:28:51;7.18;;;5.45;;
65477;SDS011;53678;39.642;22.430;2023-06-22T13:31:18;7.13;;;5.93;;
65477;SDS011;53678;39.642;22.430;2023-06-22T13:33:44;8.25;;;5.10;;
65477;SDS011;53678;39.642;22.430;2023-06-22T13:36:13;6.35;;;5.35;;
65477;SDS011;53678;39.642;22.430;2023-06-22T13:38:39;7.47;;;5.22;;
65477;SDS011;53678;39.642;22.430;2023-06-22T13:41:06;8.13;;;5.43;;
65477;SDS011;53678;39.642;22.430;2023-06-22T13:43:31;6.35;;;5.40;;
65477;SDS011;53678;39.642;22.430;2023-06-22T13:45:57;10.25;;;5.25;;
65477;SDS011;53678;39.642;22.430;2023-06-22T13:48:23;7.78;;;5.28;;
65477;SDS011;53678;39.642;22.430;2023-06-22T13:50:52;6.00;;;5.40;;
65477;SDS011;53678;39.642;22.430;2023-06-22T13:53:18;9.23;;;5.68;;
65477;SDS011;53678;39.642;22.430;2023-06-22T13:55:45;9.30;;;5.10;;
65477;SDS011;53678;39.642;22.430;2023-06-22T13:58:13;7.10;;;5.47;;
65477;SDS011;53678;39.642;22.430;2023-06-22T14:00:39;8.18;;;5.55;;
65477;SDS011;53678;39.642;22.430;2023-06-22T14:03:05;5.78;;;5.15;;
65477;SDS011;53678;39.642;22.430;2023-06-22T14:05:31;5.93;;;5.10;;
65477;SDS011;53678;39.642;22.430;2023-06-22T14:07:57;6.95;;;4.97;;
65477;SDS011;53678;39.642;22.430;2023-06-22T14:10:22;7.65;;;5.38;;
65477;SDS011;53678;39.642;22.430;2023-06-22T14:12:48;5.57;;;5.00;;
65477;SDS011;53678;39.642;22.430;2023-06-22T14:15:14;6.13;;;5.50;;
65477;SDS011;53678;39.642;22.430;2023-06-22T14:17:40;7.53;;;5.45;;
65477;SDS011;53678;39.642;22.430;2023-06-22T14:20:07;7.07;;;5.28;;
65477;SDS011;53678;39.642;22.430;2023-06-22T14:22:33;6.03;;;5.30;;
65477;SDS011;53678;39.642;22.430;2023-06-22T14:25:00;8.55;;;4.97;;
65477;SDS011;53678;39.642;22.430;2023-06-22T14:27:27;9.02;;;4.93;;
65477;SDS011;53678;39.642;22.430;2023-06-22T14:29:52;9.85;;;5.45;;
65477;SDS011;53678;39.642;22.430;2023-06-22T14:32:18;6.45;;;4.95;;
65477;SDS011;53678;39.642;22.430;2023-06-22T14:34:44;6.85;;;5.43;;